^^
Grace C. Lehan Memorial Weather Station Historical Data
Daily Summary for May 20, 2021 Units:  Metric    English   Both
Daily Weekly Monthly Yearly
  High: Low: Average:
Temperature: 2.4 °C -3.3 °C -0.3 °C
Dew Point: -2.2 °C -8.3 °C -5.4 °C
Humidity: 89% 49.6% 70%
Wind Speed: 20km/h 0km/h 6.4km/h
Wind Gust: 38.6km/h - -
Wind- - NW
Pressure: 1016.5 hPa 1014.8 hPa -
Precipitation: 0 mm    
 
 
Tabular Data for May 20, 2021
Time Temperature Dew Point Pressure Wind Wind Speed Wind Gust Humidity Rainfall Rate (Hourly) solar
00:04 -0.6 °C -2.5 °C 1015.5 hPa NW 2.1 km/h 11.3 km/h 87% 0 mm 0 W/m2
00:09 -0.6 °C -2.5 °C 1015.5 hPa NNW 4.7 km/h 12.9 km/h 87% 0 mm 0 W/m2
00:14 -0.6 °C -2.5 °C 1015.5 hPa NNW 3.2 km/h 14.5 km/h 87% 0 mm 0 W/m2
00:19 -0.6 °C -2.5 °C 1015.5 hPa NNW 1.4 km/h 14.5 km/h 87% 0 mm 0 W/m2
00:24 -0.6 °C -2.5 °C 1015.5 hPa North 0.5 km/h 14.5 km/h 87% 0 mm 0 W/m2
00:29 -0.6 °C -2.4 °C 1015.5 hPa NNW 1 km/h 14.5 km/h 87% 0 mm 0 W/m2
00:34 -0.6 °C -2.3 °C 1015.5 hPa North 0.8 km/h 14.5 km/h 87.9% 0 mm 0 W/m2
00:39 -0.6 °C -2.3 °C 1015.5 hPa NNW 0.2 km/h 6.4 km/h 88% 0 mm 0 W/m2
00:44 -0.6 °C -2.3 °C 1015.5 hPa Calm   6.4 km/h 88% 0 mm 0 W/m2
00:49 -0.6 °C -2.3 °C 1015.5 hPa Calm   6.4 km/h 88% 0 mm 0 W/m2
00:54 -0.6 °C -2.3 °C 1015.5 hPa NNW 0.3 km/h 6.4 km/h 88% 0 mm 0 W/m2
00:59 -0.6 °C -2.3 °C 1015.5 hPa Calm   6.4 km/h 88% 0 mm 0 W/m2
01:04 -0.6 °C -2.3 °C 1015.5 hPa Calm   6.4 km/h 88% 0 mm 0 W/m2
01:09 -0.6 °C -2.3 °C 1015.5 hPa Calm     88% 0 mm 0 W/m2
01:14 -0.6 °C -2.3 °C 1015.5 hPa Calm     88% 0 mm 0 W/m2
01:19 -0.6 °C -2.3 °C 1015.5 hPa Calm     88% 0 mm 0 W/m2
01:24 -0.6 °C -2.3 °C 1015.5 hPa Calm     88% 0 mm 0 W/m2
01:29 -0.6 °C -2.3 °C 1015.5 hPa Calm     88% 0 mm 0 W/m2
01:34 -0.6 °C -2.3 °C 1015.5 hPa Calm     88% 0 mm 0 W/m2
01:39 -0.6 °C -2.3 °C 1015.1 hPa Calm     88% 0 mm 0 W/m2
01:44 -0.7 °C -2.4 °C 1015.1 hPa Calm     88% 0 mm 0 W/m2
01:49 -0.7 °C -2.4 °C 1015.1 hPa Calm     88.2% 0 mm 0 W/m2
01:54 -0.7 °C -2.2 °C 1015.1 hPa Calm     89% 0 mm 0 W/m2
01:59 -0.7 °C -2.2 °C 1015.1 hPa Calm     89% 0 mm 0 W/m2
02:04 -0.7 °C -2.3 °C 1015.5 hPa Calm     89% 0 mm 0 W/m2
02:09 -0.7 °C -2.3 °C 1015.5 hPa Calm     89% 0 mm 0 W/m2
02:14 -0.7 °C -2.3 °C 1015.1 hPa NNW 0.2 km/h 1.6 km/h 89% 0 mm 0 W/m2
02:19 -0.7 °C -2.3 °C 1015.1 hPa Calm   1.6 km/h 88.9% 0 mm 0 W/m2
02:24 -0.8 °C -2.5 °C 1015.1 hPa NNW 0.5 km/h 4.8 km/h 88% 0 mm 0 W/m2
02:29 -0.8 °C -2.6 °C 1015.1 hPa North 0.5 km/h 4.8 km/h 87.3% 0 mm 0 W/m2
02:34 -0.8 °C -2.8 °C 1015.5 hPa NNW 3.7 km/h 9.7 km/h 86.3% 0 mm 0 W/m2
02:39 -0.7 °C -3 °C 1015.5 hPa NW 1.1 km/h 9.7 km/h 84.7% 0 mm 0 W/m2
02:44 -0.7 °C -3.2 °C 1015.5 hPa NNW 1.3 km/h 9.7 km/h 83.3% 0 mm 0 W/m2
02:49 -0.7 °C -3.3 °C 1015.1 hPa NW 2.6 km/h 12.9 km/h 82.1% 0 mm 0 W/m2
02:54 -0.6 °C -3.6 °C 1015.1 hPa NNW 3.5 km/h 12.9 km/h 80.6% 0 mm 0 W/m2
02:59 -0.6 °C -3.8 °C 1015.1 hPa NW 4.8 km/h 12.9 km/h 79% 0 mm 0 W/m2
03:04 -0.6 °C -3.9 °C 1015.1 hPa North 1.4 km/h 12.9 km/h 77.8% 0 mm 0 W/m2
03:09 -0.5 °C -4.1 °C 1014.8 hPa NNW 1.9 km/h 9.7 km/h 77% 0 mm 0 W/m2
03:14 -0.5 °C -4.1 °C 1015.1 hPa NNW 0.8 km/h 9.7 km/h 77% 0 mm 0 W/m2
03:19 -0.6 °C -4.1 °C 1015.1 hPa NNW 3.9 km/h 12.9 km/h 76.9% 0 mm 0 W/m2
03:24 -0.5 °C -4.2 °C 1015.1 hPa NNW 1.1 km/h 12.9 km/h 76% 0 mm 0 W/m2
03:29 -0.5 °C -4.2 °C 1015.1 hPa NNW 0.3 km/h 12.9 km/h 76% 0 mm 0 W/m2
03:34 -0.6 °C -4.2 °C 1015.1 hPa NNW 0.2 km/h 12.9 km/h 76% 0 mm 0 W/m2
03:39 -0.6 °C -4.3 °C 1015.1 hPa NNW 0.2 km/h 4.8 km/h 76% 0 mm 0 W/m2
03:44 -0.6 °C -4.4 °C 1015.1 hPa North 1.1 km/h 8 km/h 75.2% 0 mm 0 W/m2
03:49 -0.6 °C -4.4 °C 1015.5 hPa Calm   8 km/h 75.5% 0 mm 0 W/m2
03:54 -0.6 °C -4.4 °C 1015.5 hPa Calm   8 km/h 75.4% 0 mm 0 W/m2
03:59 -0.7 °C -4.6 °C 1015.5 hPa North 0.3 km/h 8 km/h 75% 0 mm 0 W/m2
04:04 -0.7 °C -4.4 °C 1015.5 hPa North 0.5 km/h 1.6 km/h 76% 0 mm 0 W/m2
04:09 -0.8 °C -4.6 °C 1015.5 hPa NW 2.6 km/h 8 km/h 75.1% 0 mm 0 W/m2
04:14 -0.8 °C -4.7 °C 1015.5 hPa NW 0.2 km/h 8 km/h 75% 0 mm 0 W/m2
04:19 -0.8 °C -4.7 °C 1015.5 hPa Calm   8 km/h 75% 0 mm 0 W/m2
04:24 -0.9 °C -4.7 °C 1015.5 hPa NW 2.9 km/h 16.1 km/h 75.7% 0 mm 0 W/m2
04:29 -1 °C -4.8 °C 1015.5 hPa NW 1.1 km/h 16.1 km/h 75% 0 mm 0 W/m2
04:34 -1 °C -4.9 °C 1015.5 hPa NNW 0.6 km/h 16.1 km/h 75% 0 mm 0 W/m2
04:39 -1 °C -4.9 °C 1015.8 hPa NW 3.7 km/h 11.3 km/h 75% 0 mm 0 W/m2
04:44 -1.1 °C -4.9 °C 1015.8 hPa Calm   11.3 km/h 75% 0 mm 0 W/m2
04:49 -1.1 °C -4.9 °C 1015.5 hPa NNW 0.5 km/h 11.3 km/h 75% 0 mm 0 W/m2
04:54 -1.1 °C -4.9 °C 1015.8 hPa NW 1.4 km/h 11.3 km/h 75% 0 mm 0 W/m2
04:59 -1.2 °C -5 °C 1015.5 hPa NW 7.4 km/h 17.7 km/h 75% 0 mm 0 W/m2
05:04 -1.2 °C -5.1 °C 1015.8 hPa NW 2.9 km/h 17.7 km/h 75% 0 mm 0 W/m2
05:09 -1.2 °C -5.1 °C 1015.8 hPa NW 5.8 km/h 17.7 km/h 75% 0 mm 0 W/m2
05:14 -1.3 °C -5.2 °C 1015.8 hPa NW 6 km/h 17.7 km/h 75% 0 mm 0 W/m2
05:19 -1.5 °C -5.3 °C 1015.8 hPa NW 2.1 km/h 17.7 km/h 75% 0 mm 0 W/m2
05:24 -1.7 °C -5.5 °C 1015.8 hPa NW 4.7 km/h 17.7 km/h 75% 0 mm 0 W/m2
05:29 -1.8 °C -5.4 °C 1015.8 hPa NW 1.1 km/h 17.7 km/h 76% 0 mm 0 W/m2
05:34 -1.9 °C -5.6 °C 1015.8 hPa NW 1.1 km/h 17.7 km/h 76% 0 mm 0 W/m2
05:39 -2 °C -5.6 °C 1016.1 hPa NW 0.2 km/h 9.7 km/h 76% 0 mm 0 W/m2
05:44 -2.1 °C -5.7 °C 1016.1 hPa NW 2.6 km/h 9.7 km/h 76% 0 mm 0 W/m2
05:49 -2.2 °C -5.8 °C 1016.1 hPa Calm   9.7 km/h 76% 0 mm 0 W/m2
05:54 -2.3 °C -5.8 °C 1016.1 hPa Calm   9.7 km/h 76.3% 0 mm 0 W/m2
05:59 -2.3 °C -5.8 °C 1016.1 hPa WNW 0.8 km/h 9.7 km/h 77% 0 mm 0 W/m2
06:04 -2.4 °C -5.9 °C 1016.1 hPa Calm   9.7 km/h 77% 0 mm 0 W/m2
06:09 -2.5 °C -6 °C 1016.1 hPa Calm     77% 0 mm 0 W/m2
06:14 -2.6 °C -6 °C 1016.1 hPa Calm     77.5% 0 mm 0 W/m2
06:19 -2.7 °C -6 °C 1016.1 hPa Calm   3.2 km/h 78% 0 mm 0 W/m2
06:24 -2.8 °C -6.1 °C 1016.1 hPa Calm   3.2 km/h 78% 0 mm 0 W/m2
06:29 -2.9 °C -6.2 °C 1016.1 hPa NW 1.1 km/h 8 km/h 78% 0 mm 0 W/m2
06:34 -3.1 °C -6.1 °C 1016.1 hPa WNW 1.1 km/h 8 km/h 79.4% 0 mm 0 W/m2
06:39 -3.2 °C -6.3 °C 1016.1 hPa WNW 2.1 km/h 9.7 km/h 78.8% 0 mm 0 W/m2
06:44 -3.2 °C -6.3 °C 1016.1 hPa WNW 2.9 km/h 9.7 km/h 79% 0 mm 0 W/m2
06:49 -3.3 °C -6.4 °C 1016.1 hPa WNW 3.9 km/h 14.5 km/h 79% 0 mm 0 W/m2
06:54 -3.3 °C -6.4 °C 1016.1 hPa WNW 3.4 km/h 14.5 km/h 79% 0 mm 7 W/m2
06:59 -3.3 °C -6.4 °C 1016.1 hPa WNW 3.5 km/h 14.5 km/h 79% 0 mm 7 W/m2
07:04 -3.2 °C -6.3 °C 1016.1 hPa WNW 2.6 km/h 14.5 km/h 79.3% 0 mm 21 W/m2
07:09 -3.1 °C -6.2 °C 1016.1 hPa WNW 3.1 km/h 14.5 km/h 79% 0 mm 30 W/m2
07:14 -2.8 °C -6.1 °C 1016.1 hPa WNW 3.2 km/h 14.5 km/h 78.4% 0 mm 32 W/m2
07:19 -2.6 °C -6 °C 1016.1 hPa WNW 0.5 km/h 14.5 km/h 77.2% 0 mm 18 W/m2
07:24 -2.4 °C -6.1 °C 1016.5 hPa WNW 2.9 km/h 14.5 km/h 76.1% 0 mm 21 W/m2
07:29 -2.3 °C -5.9 °C 1016.5 hPa NW 3.4 km/h 19.3 km/h 76% 0 mm 21 W/m2
07:34 -2.3 °C -6.1 °C 1016.5 hPa WNW 4.5 km/h 19.3 km/h 75.2% 0 mm 19 W/m2
07:39 -2.2 °C -6.1 °C 1016.5 hPa NW 1.6 km/h 9.7 km/h 75% 0 mm 16 W/m2
07:44 -2.2 °C -6.2 °C 1016.5 hPa WNW 3.2 km/h 12.9 km/h 74.3% 0 mm 16 W/m2
07:49 -2.2 °C -6.1 °C 1016.5 hPa WNW 2.9 km/h 12.9 km/h 74.2% 0 mm 18 W/m2
07:54 -2.1 °C -6.1 °C 1016.5 hPa WNW 4 km/h 12.9 km/h 74% 0 mm 21 W/m2
07:59 -2.1 °C -6.2 °C 1016.5 hPa WNW 4.5 km/h 17.7 km/h 73.3% 0 mm 30 W/m2
08:00 -2 °C -6.2 °C 1016.5 hPa NW 3.2 km/h 17.7 km/h 73% 0 mm 33 W/m2
08:09 -1.8 °C -6.2 °C 1016.5 hPa WNW 4.5 km/h 19.3 km/h 72% 0 mm 49 W/m2
08:14 -1.7 °C -6.1 °C 1016.5 hPa WNW 5.8 km/h 19.3 km/h 71.8% 0 mm 39 W/m2
08:19 -1.6 °C -6.1 °C 1016.5 hPa WNW 5.1 km/h 19.3 km/h 71.4% 0 mm 100 W/m2
08:24 -1.4 °C -6 °C 1016.5 hPa WNW 2.1 km/h 19.3 km/h 71% 0 mm 109 W/m2
08:29 -1.2 °C -5.8 °C 1016.5 hPa WNW 2.4 km/h 19.3 km/h 70.9% 0 mm 107 W/m2
08:34 -0.9 °C -5.8 °C 1016.5 hPa West 7.1 km/h 19.3 km/h 69.6% 0 mm 114 W/m2
08:39 -0.7 °C -5.8 °C 1016.5 hPa WNW 9.7 km/h 19.3 km/h 68.6% 0 mm 102 W/m2
08:44 -0.6 °C -5.7 °C 1016.5 hPa WNW 5.5 km/h 19.3 km/h 67.8% 0 mm 118 W/m2
08:49 -0.4 °C -5.7 °C 1016.5 hPa WNW 6.1 km/h 19.3 km/h 67.1% 0 mm 125 W/m2
08:54 -0.3 °C -5.8 °C 1016.5 hPa WNW 8.2 km/h 20.9 km/h 66.2% 0 mm 128 W/m2
08:59 -0.2 °C -5.8 °C 1016.5 hPa WNW 6.4 km/h 20.9 km/h 66% 0 mm 105 W/m2
09:04 -0.2 °C -5.8 °C 1016.5 hPa NW 5.8 km/h 20.9 km/h 65.6% 0 mm 123 W/m2
09:09 -0.1 °C -5.5 °C 1016.5 hPa NW 8.2 km/h 19.3 km/h 66.9% 0 mm 123 W/m2
09:14 0 °C -5.4 °C 1016.5 hPa WNW 10 km/h 22.5 km/h 67% 0 mm 130 W/m2
09:19 0.1 °C -5.4 °C 1016.5 hPa WNW 8.4 km/h 22.5 km/h 66.7% 0 mm 93 W/m2
09:24 0.2 °C -5.3 °C 1016.1 hPa WNW 13.8 km/h 30.6 km/h 66.5% 0 mm 109 W/m2
09:29 0.2 °C -5.7 °C 1016.1 hPa WNW 14.8 km/h 32.2 km/h 64.7% 0 mm 135 W/m2
09:34 0.2 °C -5.8 °C 1016.5 hPa NW 10.5 km/h 32.2 km/h 63.9% 0 mm 185 W/m2
09:39 0.3 °C -5.9 °C 1016.5 hPa NW 15.8 km/h 25.7 km/h 63.1% 0 mm 206 W/m2
09:44 0.4 °C -6.1 °C 1016.1 hPa NW 10 km/h 25.7 km/h 62% 0 mm 206 W/m2
09:49 0.6 °C -5.8 °C 1016.1 hPa NW 11.3 km/h 25.7 km/h 62% 0 mm 183 W/m2
09:54 0.8 °C -5.8 °C 1016.1 hPa NW 7.1 km/h 25.7 km/h 61.1% 0 mm 197 W/m2
09:59 1.1 °C -5.6 °C 1016.1 hPa WNW 5.3 km/h 25.7 km/h 61% 0 mm 262 W/m2
10:04 1.3 °C -5.6 °C 1016.1 hPa NW 15.3 km/h 29 km/h 60.1% 0 mm 322 W/m2
10:09 1.2 °C -6.1 °C 1016.1 hPa NW 11.4 km/h 29 km/h 58.3% 0 mm 338 W/m2
10:14 1.1 °C -6.3 °C 1016.1 hPa NW 11.6 km/h 29 km/h 57.8% 0 mm 323 W/m2
10:19 1.1 °C -6.2 °C 1016.1 hPa NW 14.8 km/h 29 km/h 58.3% 0 mm 359 W/m2
10:24 1.1 °C -6.3 °C 1016.1 hPa NW 10.8 km/h 29 km/h 57.6% 0 mm 371 W/m2
10:29 1.2 °C -6.1 °C 1016.1 hPa WNW 8.2 km/h 29 km/h 58.3% 0 mm 336 W/m2
10:34 1.4 °C -6.1 °C 1016.1 hPa WNW 15 km/h 29 km/h 57.3% 0 mm 464 W/m2
10:39 1.5 °C -6.2 °C 1016.1 hPa WNW 15.9 km/h 32.2 km/h 56.4% 0 mm 490 W/m2
10:44 1.7 °C -6.1 °C 1016.1 hPa NW 10 km/h 32.2 km/h 56.3% 0 mm 580 W/m2
10:49 1.9 °C -6.1 °C 1016.1 hPa WNW 12.6 km/h 32.2 km/h 55.5% 0 mm 580 W/m2
10:54 1.9 °C -6.2 °C 1016.1 hPa WNW 11.6 km/h 32.2 km/h 54.6% 0 mm 315 W/m2
10:59 1.9 °C -6.4 °C 1016.1 hPa WNW 10.6 km/h 32.2 km/h 54.3% 0 mm 121 W/m2
11:04 1.7 °C -6.4 °C 1016.1 hPa NW 10.3 km/h 32.2 km/h 54.7% 0 mm 199 W/m2
11:09 1.8 °C -6.4 °C 1016.1 hPa NW 13.5 km/h 24.1 km/h 54.5% 0 mm 548 W/m2
11:13 1.9 °C -6.4 °C 1016.1 hPa NNW 13.8 km/h 29 km/h 53.8% 0 mm 548 W/m2
11:30 1.8 °C -7.3 °C 1016.1 hPa NW 12.9 km/h 33.8 km/h 51% 0 mm 361 W/m2
12:04 2.4 °C -6.9 °C 1016.1 hPa NW 19.3 km/h 33.8 km/h 50.1% 0 mm 438 W/m2
12:09 2.3 °C -7.1 °C 1016.1 hPa NW 19.8 km/h 35.4 km/h 49.6% 0 mm 438 W/m2
12:14 2.1 °C -7 °C 1016.1 hPa WNW 14 km/h 35.4 km/h 51% 0 mm 438 W/m2
12:19 2 °C -6.7 °C 1016.1 hPa NW 14.8 km/h 35.4 km/h 52.5% 0 mm 118 W/m2
12:24 1.9 °C -6.7 °C 1016.1 hPa NW 7.9 km/h 35.4 km/h 52.5% 0 mm 234 W/m2
12:29 2 °C -6.8 °C 1016.1 hPa NW 14.5 km/h 35.4 km/h 52.3% 0 mm 234 W/m2
12:34 1.9 °C -7.1 °C 1015.8 hPa NW 10.9 km/h 35.4 km/h 51.3% 0 mm 171 W/m2
12:39 1.9 °C -6.7 °C 1015.8 hPa WNW 8.9 km/h 25.7 km/h 52.7% 0 mm 541 W/m2
12:44 2.1 °C -6.4 °C 1015.8 hPa NW 15.3 km/h 27.4 km/h 53.3% 0 mm 547 W/m2
12:49 2.1 °C -6.7 °C 1015.8 hPa WNW 16.3 km/h 33.8 km/h 52.2% 0 mm 278 W/m2
12:54 2 °C -6.8 °C 1015.8 hPa NW 15 km/h 33.8 km/h 51.9% 0 mm 237 W/m2
12:59 1.9 °C -7 °C 1015.8 hPa NW 11.7 km/h 33.8 km/h 51.6% 0 mm 237 W/m2
13:04 1.9 °C -7.1 °C 1015.8 hPa NW 17.1 km/h 37 km/h 51.6% 0 mm 206 W/m2
13:09 1.8 °C -7.1 °C 1015.8 hPa NW 13 km/h 37 km/h 51.6% 0 mm 160 W/m2
13:14 1.9 °C -6.9 °C 1015.8 hPa WNW 13.4 km/h 37 km/h 52% 0 mm 582 W/m2
13:19 2 °C -6.8 °C 1015.8 hPa NW 10.1 km/h 37 km/h 51.9% 0 mm 468 W/m2
13:24 2.1 °C -7.1 °C 1015.8 hPa NW 10 km/h 37 km/h 51% 0 mm 315 W/m2
13:29 1.9 °C -7.2 °C 1015.5 hPa NW 13 km/h 37 km/h 50.8% 0 mm 255 W/m2
13:34 1.8 °C -7.4 °C 1015.5 hPa NW 13.5 km/h 37 km/h 50.5% 0 mm 209 W/m2
13:39 1.6 °C -7.4 °C 1015.8 hPa NW 11.1 km/h 29 km/h 51% 0 mm 149 W/m2
13:44 1.5 °C -7.7 °C 1015.8 hPa WNW 19.3 km/h 37 km/h 50.6% 0 mm 151 W/m2
13:49 1.3 °C -7.9 °C 1015.8 hPa NW 16.7 km/h 37 km/h 50.2% 0 mm 134 W/m2
13:54 1.2 °C -8 °C 1015.8 hPa NW 14.6 km/h 37 km/h 50.3% 0 mm 130 W/m2
13:59 1.1 °C -7.8 °C 1015.8 hPa NW 15.6 km/h 37 km/h 51.5% 0 mm 132 W/m2
14:04 1 °C -7.9 °C 1015.8 hPa NW 13.4 km/h 37 km/h 51.6% 0 mm 105 W/m2
14:09 0.9 °C -8.1 °C 1015.8 hPa WNW 16.3 km/h 30.6 km/h 51% 0 mm 120 W/m2
14:14 0.8 °C -8.2 °C 1015.8 hPa NW 14.8 km/h 30.6 km/h 50.8% 0 mm 107 W/m2
14:19 0.8 °C -8.3 °C 1015.5 hPa NW 18.3 km/h 30.6 km/h 50.7% 0 mm 72 W/m2
14:24 0.7 °C -8.3 °C 1015.5 hPa WNW 18.5 km/h 30.6 km/h 51.1% 0 mm 148 W/m2
14:29 0.7 °C -8.3 °C 1015.5 hPa WNW 19.5 km/h 35.4 km/h 51% 0 mm 181 W/m2
14:34 0.7 °C -8.3 °C 1015.5 hPa WNW 20 km/h 35.4 km/h 51% 0 mm 125 W/m2
14:39 0.7 °C -8.3 °C 1015.5 hPa NW 16.3 km/h 35.4 km/h 51% 0 mm 123 W/m2
14:44 0.7 °C -8.1 °C 1015.8 hPa NW 20 km/h 38.6 km/h 51.8% 0 mm 179 W/m2
14:49 0.7 °C -8 °C 1015.8 hPa NW 13.8 km/h 38.6 km/h 52.1% 0 mm 156 W/m2
14:54 0.8 °C -7.9 °C 1015.8 hPa WNW 17.4 km/h 38.6 km/h 52.1% 0 mm 148 W/m2
14:59 0.8 °C -7.9 °C 1016.1 hPa WNW 13.4 km/h 38.6 km/h 52% 0 mm 262 W/m2
15:04 0.9 °C -7.7 °C 1016.1 hPa NW 17.7 km/h 38.6 km/h 52.4% 0 mm 262 W/m2
15:09 1.2 °C -7.8 °C 1016.1 hPa WNW 16.7 km/h 38.6 km/h 51.3% 0 mm 200 W/m2
15:13 1.2 °C -7.8 °C 1016.1 hPa WNW 16.3 km/h 38.6 km/h 51% 0 mm 172 W/m2
Hartford County Weather
Compliments of Weather Underground - 4 mb